Holtville, California
Current Conditions -  °F | °C
As of 10:53 PM on Thursday 30 Oct 2014 (Local Time) from KIPL Reporting Station
Clear Clear  
Wind Chill: 69°   Ceiling: Unl
Heat Index: 69°   Visibility: 10mi
Dew Point: 44°   Wind: 0mph
Humidity: 40%   Direction: NA
Pressure: 29.86"   Gusts: NA
Location:  32.81°N, 115.38°W
Report Text: KIPL 310553Z AUTO 00000KT 10SM CLR 21/07 A2986 RMK AO2 SLP112 T02060067 10322 20200 50003
Loading
Personal Weather Stations






























Interactive Weather Map
Tropical Storm Tracking
New forecast layout! Learn more

10-Day Weather Forecast

Advertisements
Track Severe Weather on mobile